sensor_id;sensor_type;location;lat;lon;timestamp;P1;durP1;ratioP1;P2;durP2;ratioP2
21103;SDS011;10710;53.398;-1.514;2024-03-07T02:42:48;14.10;;;6.53;;
21103;SDS011;10710;53.398;-1.514;2024-03-07T02:46:04;15.32;;;7.63;;
21103;SDS011;10710;53.398;-1.514;2024-03-07T02:53:06;12.30;;;6.03;;
21103;SDS011;10710;53.398;-1.514;2024-03-07T02:56:21;12.88;;;6.95;;
21103;SDS011;10710;53.398;-1.514;2024-03-07T02:59:45;17.80;;;7.30;;
21103;SDS011;10710;53.398;-1.514;2024-03-07T03:02:59;16.77;;;7.50;;
21103;SDS011;10710;53.398;-1.514;2024-03-07T03:06:12;15.52;;;7.45;;
21103;SDS011;10710;53.398;-1.514;2024-03-07T03:12:27;16.17;;;7.00;;
21103;SDS011;10710;53.398;-1.514;2024-03-07T03:15:17;10.30;;;5.20;;
21103;SDS011;10710;53.398;-1.514;2024-03-07T03:18:06;17.83;;;7.28;;
21103;SDS011;10710;53.398;-1.514;2024-03-07T03:20:57;15.90;;;6.43;;
21103;SDS011;10710;53.398;-1.514;2024-03-07T03:23:44;12.82;;;6.60;;
21103;SDS011;10710;53.398;-1.514;2024-03-07T03:26:52;17.05;;;7.10;;
21103;SDS011;10710;53.398;-1.514;2024-03-07T03:29:42;19.23;;;8.13;;
21103;SDS011;10710;53.398;-1.514;2024-03-07T03:32:27;18.00;;;7.73;;
21103;SDS011;10710;53.398;-1.514;2024-03-07T03:35:11;25.55;;;9.02;;
21103;SDS011;10710;53.398;-1.514;2024-03-07T03:37:59;24.83;;;9.37;;
21103;SDS011;10710;53.398;-1.514;2024-03-07T03:40:45;19.83;;;8.38;;
21103;SDS011;10710;53.398;-1.514;2024-03-07T03:43:29;24.73;;;7.78;;
21103;SDS011;10710;53.398;-1.514;2024-03-07T03:46:14;18.67;;;8.23;;
21103;SDS011;10710;53.398;-1.514;2024-03-07T03:48:58;22.77;;;8.77;;
21103;SDS011;10710;53.398;-1.514;2024-03-07T03:51:43;26.33;;;8.82;;
21103;SDS011;10710;53.398;-1.514;2024-03-07T03:54:28;21.10;;;7.93;;
21103;SDS011;10710;53.398;-1.514;2024-03-07T03:57:13;33.03;;;9.20;;
21103;SDS011;10710;53.398;-1.514;2024-03-07T03:59:57;25.00;;;8.90;;
21103;SDS011;10710;53.398;-1.514;2024-03-07T04:02:43;26.20;;;8.00;;
21103;SDS011;10710;53.398;-1.514;2024-03-07T04:05:31;17.55;;;7.95;;
21103;SDS011;10710;53.398;-1.514;2024-03-07T04:08:16;27.03;;;8.00;;
21103;SDS011;10710;53.398;-1.514;2024-03-07T04:11:01;16.55;;;7.50;;
21103;SDS011;10710;53.398;-1.514;2024-03-07T04:13:46;22.63;;;8.18;;
21103;SDS011;10710;53.398;-1.514;2024-03-07T04:16:31;22.85;;;8.55;;
21103;SDS011;10710;53.398;-1.514;2024-03-07T04:19:18;23.27;;;8.13;;
21103;SDS011;10710;53.398;-1.514;2024-03-07T04:22:37;17.95;;;8.80;;
21103;SDS011;10710;53.398;-1.514;2024-03-07T04:25:31;23.10;;;7.45;;
21103;SDS011;10710;53.398;-1.514;2024-03-07T04:31:51;22.17;;;7.35;;
21103;SDS011;10710;53.398;-1.514;2024-03-07T04:34:56;17.10;;;7.10;;
21103;SDS011;10710;53.398;-1.514;2024-03-07T04:37:50;22.10;;;7.00;;
21103;SDS011;10710;53.398;-1.514;2024-03-07T04:40:45;23.70;;;7.10;;
21103;SDS011;10710;53.398;-1.514;2024-03-07T04:43:38;16.02;;;7.30;;
21103;SDS011;10710;53.398;-1.514;2024-03-07T04:46:34;15.48;;;6.88;;
21103;SDS011;10710;53.398;-1.514;2024-03-07T04:49:35;17.90;;;6.63;;
21103;SDS011;10710;53.398;-1.514;2024-03-07T04:52:27;17.55;;;7.38;;
21103;SDS011;10710;53.398;-1.514;2024-03-07T04:55:26;17.13;;;6.38;;
21103;SDS011;10710;53.398;-1.514;2024-03-07T04:58:23;25.83;;;7.45;;
21103;SDS011;10710;53.398;-1.514;2024-03-07T05:01:24;24.75;;;6.50;;
21103;SDS011;10710;53.398;-1.514;2024-03-07T05:04:09;16.05;;;6.20;;
21103;SDS011;10710;53.398;-1.514;2024-03-07T05:07:25;23.85;;;5.78;;
21103;SDS011;10710;53.398;-1.514;2024-03-07T05:10:30;16.60;;;5.97;;
21103;SDS011;10710;53.398;-1.514;2024-03-07T05:13:20;13.68;;;5.55;;
21103;SDS011;10710;53.398;-1.514;2024-03-07T05:16:17;18.58;;;6.28;;
21103;SDS011;10710;53.398;-1.514;2024-03-07T05:22:55;12.52;;;6.78;;
21103;SDS011;10710;53.398;-1.514;2024-03-07T05:29:46;16.60;;;5.60;;
21103;SDS011;10710;53.398;-1.514;2024-03-07T05:32:34;17.67;;;6.65;;
21103;SDS011;10710;53.398;-1.514;2024-03-07T05:35:23;16.60;;;5.40;;
21103;SDS011;10710;53.398;-1.514;2024-03-07T05:38:15;18.05;;;6.10;;
21103;SDS011;10710;53.398;-1.514;2024-03-07T05:41:02;11.38;;;5.40;;
21103;SDS011;10710;53.398;-1.514;2024-03-07T05:44:00;14.53;;;6.13;;
21103;SDS011;10710;53.398;-1.514;2024-03-07T05:46:44;14.60;;;5.75;;
21103;SDS011;10710;53.398;-1.514;2024-03-07T05:49:34;19.15;;;6.43;;
21103;SDS011;10710;53.398;-1.514;2024-03-07T05:52:24;12.32;;;5.90;;
21103;SDS011;10710;53.398;-1.514;2024-03-07T05:55:11;13.32;;;5.85;;
21103;SDS011;10710;53.398;-1.514;2024-03-07T05:58:00;15.03;;;6.40;;
21103;SDS011;10710;53.398;-1.514;2024-03-07T06:00:50;15.70;;;6.35;;
21103;SDS011;10710;53.398;-1.514;2024-03-07T06:03:46;16.27;;;6.00;;
21103;SDS011;10710;53.398;-1.514;2024-03-07T06:06:33;20.65;;;6.57;;
21103;SDS011;10710;53.398;-1.514;2024-03-07T06:09:25;17.73;;;6.28;;
21103;SDS011;10710;53.398;-1.514;2024-03-07T06:12:34;17.75;;;6.63;;
21103;SDS011;10710;53.398;-1.514;2024-03-07T06:15:35;18.52;;;6.55;;
21103;SDS011;10710;53.398;-1.514;2024-03-07T06:18:24;14.73;;;5.57;;
21103;SDS011;10710;53.398;-1.514;2024-03-07T06:21:17;19.48;;;6.97;;
21103;SDS011;10710;53.398;-1.514;2024-03-07T06:24:02;20.23;;;5.87;;
21103;SDS011;10710;53.398;-1.514;2024-03-07T06:26:54;16.90;;;5.75;;
21103;SDS011;10710;53.398;-1.514;2024-03-07T06:29:47;18.63;;;6.03;;
21103;SDS011;10710;53.398;-1.514;2024-03-07T06:32:34;22.50;;;6.40;;
21103;SDS011;10710;53.398;-1.514;2024-03-07T06:35:18;20.15;;;6.60;;
21103;SDS011;10710;53.398;-1.514;2024-03-07T06:38:06;16.17;;;5.97;;
21103;SDS011;10710;53.398;-1.514;2024-03-07T06:40:51;17.58;;;7.63;;
21103;SDS011;10710;53.398;-1.514;2024-03-07T06:43:36;12.60;;;5.47;;
21103;SDS011;10710;53.398;-1.514;2024-03-07T06:46:23;12.10;;;5.37;;
21103;SDS011;10710;53.398;-1.514;2024-03-07T06:49:08;10.90;;;5.93;;
21103;SDS011;10710;53.398;-1.514;2024-03-07T06:51:54;14.35;;;5.38;;
21103;SDS011;10710;53.398;-1.514;2024-03-07T06:54:38;14.15;;;6.07;;
21103;SDS011;10710;53.398;-1.514;2024-03-07T06:57:23;13.43;;;5.95;;
21103;SDS011;10710;53.398;-1.514;2024-03-07T07:00:07;11.90;;;5.18;;
21103;SDS011;10710;53.398;-1.514;2024-03-07T07:02:54;11.90;;;5.65;;
21103;SDS011;10710;53.398;-1.514;2024-03-07T07:05:39;10.60;;;5.10;;
21103;SDS011;10710;53.398;-1.514;2024-03-07T07:08:28;14.77;;;5.15;;
21103;SDS011;10710;53.398;-1.514;2024-03-07T07:11:16;15.63;;;5.85;;
21103;SDS011;10710;53.398;-1.514;2024-03-07T07:14:01;18.63;;;5.90;;
21103;SDS011;10710;53.398;-1.514;2024-03-07T07:16:48;13.97;;;6.23;;
21103;SDS011;10710;53.398;-1.514;2024-03-07T07:19:33;12.57;;;6.03;;
21103;SDS011;10710;53.398;-1.514;2024-03-07T07:22:17;12.40;;;6.80;;
21103;SDS011;10710;53.398;-1.514;2024-03-07T07:25:02;15.57;;;5.90;;
21103;SDS011;10710;53.398;-1.514;2024-03-07T07:27:51;19.10;;;7.32;;
21103;SDS011;10710;53.398;-1.514;2024-03-07T07:30:39;16.45;;;6.65;;
21103;SDS011;10710;53.398;-1.514;2024-03-07T07:33:26;16.27;;;6.88;;
21103;SDS011;10710;53.398;-1.514;2024-03-07T07:36:11;21.02;;;7.47;;
21103;SDS011;10710;53.398;-1.514;2024-03-07T07:38:58;12.48;;;6.05;;
21103;SDS011;10710;53.398;-1.514;2024-03-07T07:41:42;17.88;;;7.47;;
21103;SDS011;10710;53.398;-1.514;2024-03-07T07:44:26;15.52;;;6.75;;
21103;SDS011;10710;53.398;-1.514;2024-03-07T07:47:11;20.73;;;7.15;;
21103;SDS011;10710;53.398;-1.514;2024-03-07T07:49:55;24.88;;;7.10;;
21103;SDS011;10710;53.398;-1.514;2024-03-07T07:52:44;15.15;;;6.50;;
21103;SDS011;10710;53.398;-1.514;2024-03-07T07:55:34;13.65;;;6.10;;
21103;SDS011;10710;53.398;-1.514;2024-03-07T07:58:22;17.47;;;5.70;;
21103;SDS011;10710;53.398;-1.514;2024-03-07T08:01:09;15.15;;;5.35;;
21103;SDS011;10710;53.398;-1.514;2024-03-07T08:03:58;16.90;;;5.38;;
21103;SDS011;10710;53.398;-1.514;2024-03-07T08:06:49;10.65;;;4.53;;
21103;SDS011;10710;53.398;-1.514;2024-03-07T08:09:33;13.90;;;6.15;;
21103;SDS011;10710;53.398;-1.514;2024-03-07T08:12:18;14.52;;;5.57;;
21103;SDS011;10710;53.398;-1.514;2024-03-07T08:15:03;7.83;;;3.90;;
21103;SDS011;10710;53.398;-1.514;2024-03-07T08:17:48;9.32;;;4.28;;
21103;SDS011;10710;53.398;-1.514;2024-03-07T08:20:34;9.35;;;5.22;;
21103;SDS011;10710;53.398;-1.514;2024-03-07T08:23:22;11.15;;;5.75;;
21103;SDS011;10710;53.398;-1.514;2024-03-07T08:26:10;18.23;;;4.70;;
21103;SDS011;10710;53.398;-1.514;2024-03-07T08:28:57;11.25;;;4.93;;
21103;SDS011;10710;53.398;-1.514;2024-03-07T08:31:44;11.82;;;3.90;;
21103;SDS011;10710;53.398;-1.514;2024-03-07T08:34:29;7.87;;;4.17;;
21103;SDS011;10710;53.398;-1.514;2024-03-07T08:37:26;21.07;;;5.10;;
21103;SDS011;10710;53.398;-1.514;2024-03-07T08:40:20;13.95;;;5.97;;
21103;SDS011;10710;53.398;-1.514;2024-03-07T08:43:05;11.33;;;5.00;;
21103;SDS011;10710;53.398;-1.514;2024-03-07T08:45:56;10.98;;;5.15;;
21103;SDS011;10710;53.398;-1.514;2024-03-07T08:48:56;15.45;;;4.45;;
21103;SDS011;10710;53.398;-1.514;2024-03-07T08:51:52;18.77;;;5.50;;
21103;SDS011;10710;53.398;-1.514;2024-03-07T08:54:46;13.77;;;5.32;;
21103;SDS011;10710;53.398;-1.514;2024-03-07T08:57:30;11.85;;;5.45;;
21103;SDS011;10710;53.398;-1.514;2024-03-07T09:00:26;16.05;;;5.40;;
21103;SDS011;10710;53.398;-1.514;2024-03-07T09:06:33;14.45;;;5.05;;
21103;SDS011;10710;53.398;-1.514;2024-03-07T09:16:35;13.00;;;5.57;;
21103;SDS011;10710;53.398;-1.514;2024-03-07T09:19:28;12.32;;;4.82;;
21103;SDS011;10710;53.398;-1.514;2024-03-07T09:25:51;16.77;;;5.88;;
21103;SDS011;10710;53.398;-1.514;2024-03-07T09:32:29;13.13;;;4.65;;
21103;SDS011;10710;53.398;-1.514;2024-03-07T09:35:31;14.67;;;4.83;;
21103;SDS011;10710;53.398;-1.514;2024-03-07T09:38:24;15.88;;;5.68;;
21103;SDS011;10710;53.398;-1.514;2024-03-07T09:41:15;14.10;;;5.32;;
21103;SDS011;10710;53.398;-1.514;2024-03-07T09:44:14;12.18;;;5.07;;
21103;SDS011;10710;53.398;-1.514;2024-03-07T09:47:12;14.73;;;4.53;;
21103;SDS011;10710;53.398;-1.514;2024-03-07T09:50:06;15.17;;;5.10;;
21103;SDS011;10710;53.398;-1.514;2024-03-07T09:52:52;13.63;;;4.68;;
21103;SDS011;10710;53.398;-1.514;2024-03-07T09:59:25;15.55;;;4.68;;
21103;SDS011;10710;53.398;-1.514;2024-03-07T10:06:13;17.38;;;6.63;;
21103;SDS011;10710;53.398;-1.514;2024-03-07T10:12:25;15.75;;;5.25;;
21103;SDS011;10710;53.398;-1.514;2024-03-07T10:15:13;10.17;;;4.73;;
21103;SDS011;10710;53.398;-1.514;2024-03-07T10:18:10;12.23;;;4.60;;
21103;SDS011;10710;53.398;-1.514;2024-03-07T10:21:09;10.57;;;4.97;;
21103;SDS011;10710;53.398;-1.514;2024-03-07T10:24:27;15.60;;;5.03;;
21103;SDS011;10710;53.398;-1.514;2024-03-07T10:34:25;15.77;;;5.03;;
21103;SDS011;10710;53.398;-1.514;2024-03-07T10:40:28;14.68;;;6.35;;
21103;SDS011;10710;53.398;-1.514;2024-03-07T10:43:36;15.32;;;6.57;;
21103;SDS011;10710;53.398;-1.514;2024-03-07T10:46:49;14.23;;;6.47;;
21103;SDS011;10710;53.398;-1.514;2024-03-07T10:49:47;11.00;;;5.20;;
21103;SDS011;10710;53.398;-1.514;2024-03-07T11:03:09;17.52;;;6.70;;
21103;SDS011;10710;53.398;-1.514;2024-03-07T11:06:23;14.10;;;5.15;;
21103;SDS011;10710;53.398;-1.514;2024-03-07T11:09:12;19.42;;;6.30;;
21103;SDS011;10710;53.398;-1.514;2024-03-07T11:12:14;15.75;;;6.88;;
21103;SDS011;10710;53.398;-1.514;2024-03-07T11:15:18;12.40;;;6.23;;
21103;SDS011;10710;53.398;-1.514;2024-03-07T11:18:09;16.77;;;7.85;;
21103;SDS011;10710;53.398;-1.514;2024-03-07T11:32:34;21.35;;;7.65;;
21103;SDS011;10710;53.398;-1.514;2024-03-07T11:35:36;32.03;;;9.32;;
21103;SDS011;10710;53.398;-1.514;2024-03-07T11:38:30;23.83;;;8.30;;
21103;SDS011;10710;53.398;-1.514;2024-03-07T11:41:18;21.50;;;8.63;;
21103;SDS011;10710;53.398;-1.514;2024-03-07T11:44:12;25.83;;;9.93;;
21103;SDS011;10710;53.398;-1.514;2024-03-07T11:47:13;24.20;;;9.10;;
21103;SDS011;10710;53.398;-1.514;2024-03-07T11:50:08;23.90;;;9.50;;
21103;SDS011;10710;53.398;-1.514;2024-03-07T13:17:31;24.37;;;9.20;;
21103;SDS011;10710;53.398;-1.514;2024-03-07T13:20:26;19.90;;;8.90;;
21103;SDS011;10710;53.398;-1.514;2024-03-07T13:31:12;20.00;;;9.13;;
21103;SDS011;10710;53.398;-1.514;2024-03-07T13:34:00;15.02;;;7.40;;
21103;SDS011;10710;53.398;-1.514;2024-03-07T13:36:45;24.88;;;8.85;;
21103;SDS011;10710;53.398;-1.514;2024-03-07T13:39:30;18.98;;;7.43;;
21103;SDS011;10710;53.398;-1.514;2024-03-07T13:42:14;13.53;;;6.83;;
21103;SDS011;10710;53.398;-1.514;2024-03-07T13:44:58;20.83;;;7.88;;
21103;SDS011;10710;53.398;-1.514;2024-03-07T13:47:44;14.60;;;7.47;;
21103;SDS011;10710;53.398;-1.514;2024-03-07T13:50:28;16.00;;;6.88;;
21103;SDS011;10710;53.398;-1.514;2024-03-07T13:53:13;13.43;;;5.65;;
